| time (UTC) | temp F | wind direction | speed knots | gust knots | rain 1hr in | rain 24hr in | rain mn in | humidity % | barometer mb |
| 20260504151003 | 68 | 234 | 1.7 | 7.0 | 0.00 | 0.00 | 0.00 | 44 | 1014.5 |
| 20260504150504 | 67 | 221 | 0.9 | 5.2 | 0.00 | 0.00 | 0.00 | 44 | 1014.6 |
| 20260504141004 | 61 | 228 | 0.0 | 4.3 | 0.00 | 0.00 | 0.00 | 53 | 1014.6 |
| 20260504140504 | 61 | 228 | 0.0 | 7.8 | 0.00 | 0.00 | 0.00 | 55 | 1014.6 |
| 20260504130503 | 58 | 215 | 0.0 | 8.7 | 0.00 | 0.00 | 0.00 | 62 | 1015.3 |
| 20260504110503 | 53 | 235 | 2.6 | 8.7 | 0.00 | 0.00 | 0.00 | 67 | 1015.8 |
| 20260504100503 | 53 | 250 | 0.9 | 8.7 | 0.00 | 0.00 | 0.00 | 69 | 1015.8 |
| 20260504082006 | 53 | 257 | 2.6 | 7.0 | 0.00 | 0.00 | 0.00 | 71 | 1015.9 |
| 20260504081516 | 53 | 234 | 0.0 | 6.1 | 0.00 | 0.00 | 0.00 | 71 | 1016.0 |
| 20260504081008 | 53 | 244 | 2.6 | 6.1 | 0.00 | 0.00 | 0.00 | 71 | 1015.9 |
| 20260504080507 | 53 | 246 | 1.7 | 7.0 | 0.00 | 0.00 | 0.00 | 71 | 1015.9 |
| 20260504050505 | 46 | 239 | 0.0 | 0.0 | 0.00 | 0.00 | 0.00 | 81 | 1016.2 |
| 20260504050015 | 46 | 239 | 0.0 | 0.0 | 0.00 | 0.00 | 0.00 | 81 | 1016.3 |
| 20260504045504 | 46 | 233 | 0.0 | 0.0 | 0.00 | 0.00 | 0.00 | 81 | 1016.3 |
| 20260504045003 | 45 | 228 | 0.0 | 0.0 | 0.00 | 0.00 | 0.00 | 80 | 1016.4 |
| 20260504044507 | 45 | 228 | 0.0 | 0.0 | 0.00 | 0.00 | 0.00 | 80 | 1016.3 |
| 20260504044003 | 45 | 228 | 0.0 | 0.0 | 0.00 | 0.00 | 0.00 | 80 | 1016.3 |
| 20260504043505 | 45 | 228 | 0.0 | 0.0 | 0.00 | 0.00 | 0.00 | 79 | 1016.4 |
| 20260504043019 | 45 | 228 | 0.0 | 0.0 | 0.00 | 0.00 | 0.00 | 79 | 1016.4 |
| 20260504042507 | 45 | 228 | 0.0 | 0.0 | 0.00 | 0.00 | 0.00 | 79 | 1016.3 |
| 20260504042008 | 45 | 228 | 0.0 | 0.0 | 0.00 | 0.00 | 0.00 | 79 | 1016.2 |
| 20260504041523 | 45 | 228 | 0.0 | 0.0 | 0.00 | 0.00 | 0.00 | 79 | 1016.2 |
| 20260504041007 | 45 | 228 | 0.0 | 0.0 | 0.00 | 0.00 | 0.00 | 78 | 1016.3 |
| 20260504040507 | 45 | 228 | 0.0 | 0.0 | 0.00 | 0.00 | 0.00 | 78 | 1016.3 |
| 20260504040017 | 45 | 228 | 0.0 | 0.0 | 0.00 | 0.00 | 0.00 | 78 | 1016.2 |
| 20260504035505 | 45 | 228 | 0.0 | 0.0 | 0.00 | 0.00 | 0.00 | 77 | 1016.3 |
| 20260504035003 | 45 | 228 | 0.0 | 0.0 | 0.00 | 0.00 | 0.00 | 77 | 1016.2 |
| 20260504034512 | 45 | 228 | 0.0 | 0.0 | 0.00 | 0.00 | 0.00 | 77 | 1016.2 |
| 20260504034007 | 45 | 228 | 0.0 | 0.0 | 0.00 | 0.00 | 0.00 | 77 | 1016.2 |
| 20260504033507 | 45 | 228 | 0.0 | 0.0 | 0.00 | 0.00 | 0.00 | 77 | 1016.1 |
| 20260504033020 | 45 | 228 | 0.0 | 0.0 | 0.00 | 0.00 | 0.00 | 76 | 1016.0 |
| 20260504032508 | 45 | 228 | 0.0 | 0.0 | 0.00 | 0.00 | 0.00 | 76 | 1016.0 |
| 20260504032009 | 45 | 228 | 0.0 | 0.0 | 0.00 | 0.00 | 0.00 | 75 | 1016.0 |
| 20260504031525 | 45 | 228 | 0.0 | 0.0 | 0.00 | 0.00 | 0.00 | 75 | 1016.0 |
| 20260504031009 | 45 | 228 | 0.0 | 0.0 | 0.00 | 0.00 | 0.00 | 74 | 1016.0 |
| 20260504030509 | 45 | 228 | 0.0 | 0.0 | 0.00 | 0.00 | 0.00 | 75 | 1016.0 |
| 20260504030025 | 45 | 228 | 0.0 | 0.0 | 0.00 | 0.00 | 0.00 | 75 | 1016.0 |
| 20260504025508 | 45 | 228 | 0.0 | 0.0 | 0.00 | 0.00 | 0.00 | 74 | 1016.0 |
| 20260504025007 | 45 | 228 | 0.0 | 0.0 | 0.00 | 0.00 | 0.00 | 74 | 1016.0 |
| 20260504024513 | 45 | 228 | 0.0 | 0.0 | 0.00 | 0.00 | 0.00 | 73 | 1016.0 |
| 20260504024003 | 46 | 228 | 0.0 | 0.0 | 0.00 | 0.00 | 0.00 | 73 | 1016.0 |
| 20260504023506 | 46 | 228 | 0.0 | 0.0 | 0.00 | 0.00 | 0.00 | 73 | 1015.9 |
| 20260504023018 | 46 | 228 | 0.0 | 0.0 | 0.00 | 0.00 | 0.00 | 73 | 1015.9 |
| 20260504022509 | 46 | 228 | 0.0 | 0.0 | 0.00 | 0.00 | 0.00 | 72 | 1015.9 |
| 20260504022008 | 46 | 228 | 0.0 | 0.0 | 0.00 | 0.00 | 0.00 | 72 | 1015.8 |
| 20260504021522 | 47 | 228 | 0.0 | 0.0 | 0.00 | 0.00 | 0.00 | 71 | 1015.7 |
| 20260504021007 | 47 | 228 | 0.0 | 0.0 | 0.00 | 0.00 | 0.00 | 71 | 1015.8 |
| 20260504020511 | 47 | 228 | 0.0 | 0.0 | 0.00 | 0.00 | 0.00 | 71 | 1015.7 |
| 20260504020024 | 47 | 228 | 0.0 | 0.0 | 0.00 | 0.00 | 0.00 | 70 | 1015.7 |
| 20260504015509 | 47 | 228 | 0.0 | 0.0 | 0.00 | 0.00 | 0.00 | 70 | 1015.7 |
| 20260504015011 | 48 | 228 | 0.0 | 0.0 | 0.00 | 0.00 | 0.00 | 69 | 1015.7 |
| 20260504014526 | 48 | 228 | 0.0 | 0.0 | 0.00 | 0.00 | 0.00 | 68 | 1015.7 |
| 20260504014007 | 48 | 228 | 0.0 | 0.0 | 0.00 | 0.00 | 0.00 | 68 | 1015.7 |
| 20260504013506 | 49 | 228 | 0.0 | 0.0 | 0.00 | 0.00 | 0.00 | 67 | 1015.7 |
| 20260504013026 | 49 | 228 | 0.0 | 0.0 | 0.00 | 0.00 | 0.00 | 66 | 1015.7 |
| 20260504012505 | 49 | 228 | 0.0 | 0.0 | 0.00 | 0.00 | 0.00 | 65 | 1015.7 |
| 20260504012007 | 49 | 228 | 0.0 | 0.0 | 0.00 | 0.00 | 0.00 | 64 | 1015.7 |
| 20260504011518 | 50 | 228 | 0.0 | 0.0 | 0.00 | 0.00 | 0.00 | 63 | 1015.5 |
| 20260504011006 | 50 | 228 | 0.0 | 0.0 | 0.00 | 0.00 | 0.00 | 62 | 1015.5 |
| 20260504010503 | 50 | 228 | 0.0 | 0.0 | 0.00 | 0.00 | 0.00 | 60 | 1015.5 |
| 20260504010009 | 51 | 228 | 0.0 | 0.0 | 0.00 | 0.00 | 0.00 | 60 | 1015.5 |
| 20260504005504 | 51 | 228 | 0.0 | 0.0 | 0.00 | 0.00 | 0.00 | 59 | 1015.6 |
| 20260504005004 | 52 | 228 | 0.0 | 0.0 | 0.00 | 0.00 | 0.00 | 58 | 1015.5 |
| 20260504004516 | 52 | 228 | 0.0 | 0.0 | 0.00 | 0.00 | 0.00 | 57 | 1015.5 |
| 20260504004008 | 52 | 228 | 0.0 | 0.0 | 0.00 | 0.00 | 0.00 | 56 | 1015.4 |
| 20260504003503 | 53 | 228 | 0.0 | 0.0 | 0.00 | 0.00 | 0.00 | 55 | 1015.4 |
| 20260504003010 | 53 | 228 | 0.0 | 0.0 | 0.00 | 0.00 | 0.00 | 55 | 1015.3 |
| 20260504002504 | 54 | 228 | 0.0 | 0.0 | 0.00 | 0.00 | 0.00 | 53 | 1015.3 |
| 20260504002004 | 54 | 228 | 0.0 | 0.0 | 0.00 | 0.00 | 0.00 | 52 | 1015.3 |
| 20260504001521 | 55 | 228 | 0.0 | 0.0 | 0.00 | 0.00 | 0.00 | 51 | 1015.2 |
| 20260504001004 | 55 | 228 | 0.0 | 0.0 | 0.00 | 0.00 | 0.00 | 49 | 1015.2 |
| 20260504000506 | 56 | 228 | 0.0 | 0.0 | 0.00 | 0.00 | 0.00 | 48 | 1015.1 |
| 20260504000031 | 57 | 228 | 0.0 | 0.0 | 0.00 | 0.00 | 0.00 | 47 | 1015.1 |
| 20260503235509 | 57 | 228 | 0.0 | 0.0 | 0.00 | 0.00 | 0.00 | 46 | 1015.0 |
| 20260503235008 | 58 | 228 | 0.0 | 0.0 | 0.00 | 0.00 | 0.00 | 46 | 1014.9 |
| 20260503234519 | 58 | 228 | 0.0 | 0.0 | 0.00 | 0.00 | 0.00 | 45 | 1014.9 |
| 20260503234007 | 59 | 228 | 0.0 | 0.0 | 0.00 | 0.00 | 0.00 | 45 | 1014.8 |
| 20260503233507 | 59 | 228 | 0.0 | 0.0 | 0.00 | 0.00 | 0.00 | 44 | 1014.7 |
| 20260503233022 | 60 | 228 | 0.0 | 0.0 | 0.00 | 0.00 | 0.00 | 43 | 1014.6 |
| 20260503232507 | 60 | 228 | 0.0 | 0.0 | 0.00 | 0.00 | 0.00 | 41 | 1014.5 |
| 20260503232004 | 60 | 228 | 0.0 | 0.0 | 0.00 | 0.00 | 0.00 | 40 | 1014.5 |
| 20260503231512 | 60 | 228 | 0.0 | 0.0 | 0.00 | 0.00 | 0.00 | 39 | 1014.5 |
| 20260503231004 | 60 | 228 | 0.0 | 0.0 | 0.00 | 0.00 | 0.00 | 39 | 1014.5 |
| 20260503230504 | 60 | 229 | 0.0 | 0.0 | 0.00 | 0.00 | 0.00 | 38 | 1014.5 |
| 20260503230012 | 60 | 228 | 0.0 | 0.0 | 0.00 | 0.00 | 0.00 | 39 | 1014.5 |
| 20260503225504 | 60 | 254 | 0.0 | 0.0 | 0.00 | 0.00 | 0.00 | 40 | 1014.5 |
| 20260503225009 | 60 | 302 | 0.0 | 0.0 | 0.00 | 0.00 | 0.00 | 39 | 1014.5 |
| 20260503224518 | 60 | 302 | 0.0 | 0.0 | 0.00 | 0.00 | 0.00 | 38 | 1014.5 |
| 20260503224009 | 60 | 302 | 0.0 | 5.2 | 0.00 | 0.00 | 0.00 | 39 | 1014.6 |
| 20260503223507 | 60 | 234 | 0.9 | 5.2 | 0.00 | 0.00 | 0.00 | 38 | 1014.5 |
| 20260503223030 | 60 | 226 | 0.0 | 3.5 | 0.00 | 0.00 | 0.00 | 38 | 1014.6 |
| 20260503222509 | 60 | 226 | 0.0 | 3.5 | 0.00 | 0.00 | 0.00 | 37 | 1014.6 |
| 20260503222010 | 60 | 205 | 0.0 | 0.0 | 0.00 | 0.00 | 0.00 | 37 | 1014.6 |
| 20260503221528 | 60 | 360 | 0.0 | 0.0 | 0.00 | 0.00 | 0.00 | 37 | 1014.6 |
| 20260503221012 | 61 | 301 | 0.0 | 0.0 | 0.00 | 0.00 | 0.00 | 38 | 1014.7 |
| 20260503220504 | 60 | 210 | 0.0 | 0.0 | 0.00 | 0.00 | 0.00 | 39 | 1014.6 |
| 20260503220014 | 60 | 246 | 0.0 | 3.5 | 0.00 | 0.00 | 0.00 | 37 | 1014.7 |
| 20260503215506 | 60 | 246 | 0.0 | 7.8 | 0.00 | 0.00 | 0.00 | 38 | 1014.7 |
| 20260503215003 | 60 | 202 | 0.9 | 7.8 | 0.00 | 0.00 | 0.00 | 38 | 1014.7 |
| 20260503214523 | 60 | 315 | 0.0 | 7.8 | 0.00 | 0.00 | 0.00 | 37 | 1014.8 |
| 20260503214010 | 60 | 330 | 0.0 | 7.8 | 0.00 | 0.00 | 0.00 | 36 | 1014.7 |
| 20260503213509 | 60 | 333 | 0.0 | 4.3 | 0.00 | 0.00 | 0.00 | 38 | 1014.6 |
| 20260503213023 | 60 | 326 | 0.9 | 4.3 | 0.00 | 0.00 | 0.00 | 37 | 1014.7 |
| 20260503212508 | 60 | 243 | 0.0 | 4.3 | 0.00 | 0.00 | 0.00 | 37 | 1014.7 |
| 20260503212012 | 60 | 221 | 0.0 | 4.3 | 0.00 | 0.00 | 0.00 | 37 | 1014.7 |
| 20260503211526 | 60 | 313 | 0.9 | 4.3 | 0.00 | 0.00 | 0.00 | 36 | 1014.6 |
| 20260503211010 | 60 | 270 | 0.0 | 3.5 | 0.00 | 0.00 | 0.00 | 37 | 1014.7 |
| 20260503210514 | 60 | 269 | 0.0 | 5.2 | 0.00 | 0.00 | 0.00 | 37 | 1014.6 |
| 20260503210018 | 60 | 351 | 0.9 | 5.2 | 0.00 | 0.00 | 0.00 | 36 | 1014.5 |
| 20260503205507 | 60 | 184 | 0.0 | 5.2 | 0.00 | 0.00 | 0.00 | 39 | 1014.4 |
| 20260503205007 | 60 | 340 | 0.0 | 5.2 | 0.00 | 0.00 | 0.00 | 38 | 1014.3 |
| 20260503204518 | 60 | 328 | 0.9 | 4.3 | 0.00 | 0.00 | 0.00 | 37 | 1014.5 |
| 20260503204007 | 60 | 318 | 0.0 | 5.2 | 0.00 | 0.00 | 0.00 | 38 | 1014.4 |
| 20260503203509 | 60 | 262 | 0.0 | 7.8 | 0.00 | 0.00 | 0.00 | 37 | 1014.7 |
| 20260503203028 | 59 | 278 | 1.7 | 7.8 | 0.00 | 0.00 | 0.00 | 38 | 1014.6 |
| 20260503202507 | 59 | 277 | 0.0 | 6.1 | 0.00 | 0.00 | 0.00 | 37 | 1014.5 |
| 20260503202009 | 59 | 296 | 0.0 | 7.0 | 0.00 | 0.00 | 0.00 | 37 | 1014.7 |
| 20260503201527 | 59 | 337 | 3.5 | 7.0 | 0.00 | 0.00 | 0.00 | 38 | 1014.8 |
| 20260503201007 | 59 | 242 | 0.9 | 7.0 | 0.00 | 0.00 | 0.00 | 38 | 1014.8 |
| 20260503200509 | 59 | 342 | 0.9 | 7.0 | 0.00 | 0.00 | 0.00 | 38 | 1015.0 |
| 20260503200021 | 59 | 329 | 0.9 | 5.2 | 0.00 | 0.00 | 0.00 | 38 | 1015.1 |
| 20260503195508 | 59 | 330 | 0.9 | 5.2 | 0.00 | 0.00 | 0.00 | 38 | 1015.2 |
| 20260503195007 | 59 | 328 | 0.0 | 0.9 | 0.00 | 0.00 | 0.00 | 38 | 1015.3 |
| 20260503194526 | 59 | 343 | 0.0 | 4.3 | 0.00 | 0.00 | 0.00 | 38 | 1015.4 |
| 20260503194009 | 59 | 343 | 0.0 | 7.0 | 0.00 | 0.00 | 0.00 | 38 | 1015.5 |
| 20260503193510 | 59 | 344 | 2.6 | 7.0 | 0.00 | 0.00 | 0.00 | 38 | 1015.6 |
| 20260503193020 | 59 | 350 | 0.0 | 5.2 | 0.00 | 0.00 | 0.00 | 36 | 1015.5 |
| 20260503192507 | 58 | 337 | 2.6 | 9.6 | 0.00 | 0.00 | 0.00 | 38 | 1015.5 |
| 20260503192002 | 58 | 333 | 1.7 | 9.6 | 0.00 | 0.00 | 0.00 | 38 | 1015.7 |
| 20260503191503 | 58 | 334 | 1.7 | 9.6 | 0.00 | 0.00 | 0.00 | 39 | 1015.7 |
| 20260503191004 | 59 | 352 | 4.3 | 9.6 | 0.00 | 0.00 | 0.00 | 37 | 1015.8 |
| 20260503190502 | 59 | 285 | 1.7 | 7.0 | 0.00 | 0.00 | 0.00 | 39 | 1015.9 |
| 20260503190005 | 59 | 331 | 2.6 | 7.0 | 0.00 | 0.00 | 0.00 | 39 | 1015.7 |
| 20260503185502 | 59 | 336 | 0.0 | 7.0 | 0.00 | 0.00 | 0.00 | 39 | 1015.8 |
| 20260503185003 | 59 | 325 | 2.6 | 7.8 | 0.00 | 0.00 | 0.00 | 37 | 1015.9 |
| 20260503184507 | 59 | 340 | 0.9 | 7.8 | 0.00 | 0.00 | 0.00 | 37 | 1016.0 |
| 20260503184004 | 59 | 327 | 2.6 | 7.0 | 0.00 | 0.00 | 0.00 | 39 | 1016.1 |
| 20260503183504 | 59 | 340 | 1.7 | 5.2 | 0.00 | 0.00 | 0.00 | 39 | 1016.0 |
| 20260503183009 | 59 | 332 | 0.9 | 5.2 | 0.00 | 0.00 | 0.00 | 39 | 1016.0 |
| 20260503182502 | 59 | 273 | 0.0 | 3.5 | 0.00 | 0.00 | 0.00 | 37 | 1016.0 |
| 20260503182003 | 59 | 226 | 0.0 | 3.5 | 0.00 | 0.00 | 0.00 | 39 | 1016.0 |
| 20260503181505 | 59 | 317 | 0.9 | 4.3 | 0.00 | 0.00 | 0.00 | 39 | 1015.9 |
| 20260503181002 | 58 | 284 | 0.9 | 4.3 | 0.00 | 0.00 | 0.00 | 37 | 1015.9 |
| 20260503180505 | 59 | 307 | 0.0 | 8.7 | 0.00 | 0.00 | 0.00 | 38 | 1016.1 |
| 20260503180004 | 59 | 341 | 2.6 | 8.7 | 0.00 | 0.00 | 0.00 | 38 | 1016.1 |
| 20260503175504 | 58 | 242 | 0.0 | 4.3 | 0.00 | 0.00 | 0.00 | 40 | 1016.1 |
| 20260503175003 | 58 | 349 | 0.0 | 7.8 | 0.00 | 0.00 | 0.00 | 42 | 1016.1 |
| 20260503174513 | 58 | 290 | 0.9 | 7.8 | 0.00 | 0.00 | 0.00 | 39 | 1016.1 |
| 20260503174007 | 58 | 227 | 0.0 | 6.1 | 0.00 | 0.00 | 0.00 | 41 | 1016.1 |
| 20260503173503 | 58 | 44 | 0.0 | 6.1 | 0.00 | 0.00 | 0.00 | 39 | 1016.2 |
| 20260503173018 | 58 | 275 | 0.0 | 4.3 | 0.00 | 0.00 | 0.00 | 41 | 1016.2 |
| 20260503172505 | 58 | 342 | 0.0 | 8.7 | 0.00 | 0.00 | 0.00 | 40 | 1016.3 |
| 20260503172004 | 58 | 222 | 0.9 | 8.7 | 0.00 | 0.00 | 0.00 | 40 | 1016.3 |
| 20260503171525 | 58 | 315 | 2.6 | 9.6 | 0.00 | 0.00 | 0.00 | 42 | 1016.4 |
| 20260503171003 | 57 | 200 | 1.7 | 9.6 | 0.00 | 0.00 | 0.00 | 41 | 1016.4 |
| 20260503170503 | 57 | 325 | 0.9 | 8.7 | 0.00 | 0.00 | 0.00 | 40 | 1016.6 |